createdAt,value
2023-02-21T00:02:17.000Z,9.07
2023-02-21T00:05:37.103Z,9.50
2023-02-21T00:08:56.962Z,9.33
2023-02-21T00:12:16.901Z,8.90
2023-02-21T00:15:36.740Z,8.10
2023-02-21T00:18:57.644Z,7.73
2023-02-21T00:22:17.482Z,8.00
2023-02-21T00:25:37.333Z,8.50
2023-02-21T00:28:57.869Z,8.27
2023-02-21T00:32:18.384Z,7.80
2023-02-21T00:35:38.486Z,8.07
2023-02-21T00:38:58.135Z,7.73
2023-02-21T00:42:18.140Z,7.50
2023-02-21T00:45:38.435Z,7.63
2023-02-21T00:48:58.693Z,7.70
2023-02-21T00:52:18.742Z,7.60
2023-02-21T00:55:38.445Z,7.27
2023-02-21T00:58:58.495Z,7.03
2023-02-21T01:02:18.366Z,7.17
2023-02-21T01:05:38.541Z,7.70
2023-02-21T01:09:05.453Z,7.20
2023-02-21T01:12:25.451Z,7.17
2023-02-21T01:15:45.759Z,6.97
2023-02-21T01:19:07.747Z,7.10
2023-02-21T01:22:27.967Z,7.97
2023-02-21T01:25:48.033Z,7.33
2023-02-21T01:29:08.116Z,6.97
2023-02-21T01:32:28.348Z,6.80
2023-02-21T01:35:48.605Z,6.87
2023-02-21T01:39:08.278Z,6.97
2023-02-21T01:42:29.578Z,7.10
2023-02-21T01:46:00.354Z,7.10
2023-02-21T01:49:26.676Z,7.40
2023-02-21T01:52:46.780Z,6.53
2023-02-21T01:56:07.122Z,6.50
2023-02-21T01:59:28.635Z,5.83
2023-02-21T02:03:26.483Z,6.30
2023-02-21T02:06:50.530Z,6.07
2023-02-21T02:10:10.599Z,6.40
2023-02-21T02:13:33.476Z,6.07
2023-02-21T02:16:42.577Z,6.17
2023-02-21T02:19:59.726Z,6.77
2023-02-21T02:23:29.148Z,5.87
2023-02-21T02:26:58.958Z,5.60
2023-02-21T02:30:08.448Z,5.90
2023-02-21T02:33:59.132Z,6.17
2023-02-21T02:37:17.043Z,6.33
2023-02-21T02:40:31.105Z,5.93
2023-02-21T02:43:51.067Z,5.93
2023-02-21T02:46:54.812Z,6.13
2023-02-21T02:49:59.108Z,5.57
2023-02-21T02:53:03.661Z,5.97
2023-02-21T02:56:10.839Z,6.20
2023-02-21T02:59:20.465Z,5.60
2023-02-21T03:02:37.934Z,5.97
2023-02-21T03:05:52.854Z,5.73
2023-02-21T03:09:19.138Z,5.77
2023-02-21T03:12:47.243Z,6.07
2023-02-21T03:16:01.738Z,6.20
2023-02-21T03:19:13.818Z,6.10
2023-02-21T03:22:21.776Z,6.20
2023-02-21T03:25:25.520Z,6.03
2023-02-21T03:28:32.807Z,6.30
2023-02-21T03:31:39.846Z,5.80
2023-02-21T03:34:43.534Z,6.30
2023-02-21T03:37:52.177Z,5.80
2023-02-21T03:40:54.849Z,5.47
2023-02-21T03:43:57.460Z,5.73
2023-02-21T03:46:59.053Z,6.10
2023-02-21T03:50:00.560Z,5.40
2023-02-21T03:53:02.532Z,5.70
2023-02-21T03:56:06.344Z,5.30
2023-02-21T03:59:23.159Z,5.90
2023-02-21T04:02:25.080Z,5.90
2023-02-21T04:05:27.271Z,5.67
2023-02-21T04:08:28.801Z,5.80
2023-02-21T04:11:31.392Z,5.90
2023-02-21T04:14:33.945Z,6.20
2023-02-21T04:17:35.356Z,5.80
2023-02-21T04:20:38.244Z,5.43
2023-02-21T04:23:42.803Z,5.63
2023-02-21T04:26:44.440Z,5.63
2023-02-21T04:29:45.847Z,6.20
2023-02-21T04:32:47.327Z,5.70
2023-02-21T04:35:50.495Z,5.83
2023-02-21T04:39:01.172Z,5.90
2023-02-21T04:42:02.642Z,5.57
2023-02-21T04:45:05.673Z,5.93
2023-02-21T04:48:07.078Z,6.40
2023-02-21T04:51:15.481Z,6.10
2023-02-21T04:54:17.094Z,5.27
2023-02-21T04:57:18.555Z,5.83
2023-02-21T05:00:20.125Z,5.90
2023-02-21T05:03:21.921Z,5.67
2023-02-21T05:06:25.409Z,6.67
2023-02-21T05:09:26.799Z,6.47
2023-02-21T05:12:28.198Z,6.50
2023-02-21T05:15:29.627Z,6.60
2023-02-21T05:18:31.022Z,6.53
2023-02-21T05:21:35.941Z,6.77
2023-02-21T05:24:44.848Z,6.80
2023-02-21T05:27:46.685Z,7.97
2023-02-21T05:30:48.128Z,7.00
2023-02-21T05:33:49.587Z,7.87
2023-02-21T05:36:51.499Z,8.07
2023-02-21T05:39:52.980Z,7.73
2023-02-21T05:42:54.397Z,8.17
2023-02-21T05:45:56.029Z,7.53
2023-02-21T05:48:58.523Z,8.00
2023-02-21T05:51:59.928Z,7.67
2023-02-21T05:55:01.412Z,8.33
2023-02-21T05:58:02.869Z,8.33
2023-02-21T06:01:05.154Z,8.13
2023-02-21T06:04:07.554Z,8.10
2023-02-21T06:07:08.947Z,9.17
2023-02-21T06:10:10.499Z,9.57
2023-02-21T06:13:12.018Z,10.17
2023-02-21T06:16:13.461Z,9.80
2023-02-21T06:19:16.440Z,10.53
2023-02-21T06:22:17.837Z,11.17
2023-02-21T06:25:19.366Z,10.20
2023-02-21T06:28:20.765Z,10.37
2023-02-21T06:31:22.517Z,10.57
2023-02-21T06:34:23.964Z,10.40
2023-02-21T06:37:25.359Z,9.53
2023-02-21T06:40:26.734Z,11.30
2023-02-21T06:43:28.098Z,11.00
2023-02-21T06:46:30.843Z,11.07
2023-02-21T06:49:32.259Z,11.33
2023-02-21T06:52:33.672Z,11.13
2023-02-21T06:55:35.085Z,11.30
2023-02-21T06:58:36.516Z,12.63
2023-02-21T07:01:37.939Z,11.17
2023-02-21T07:04:39.444Z,11.20
2023-02-21T07:07:42.766Z,10.30
2023-02-21T07:10:44.254Z,10.30
2023-02-21T07:13:53.012Z,10.73
2023-02-21T07:16:54.413Z,11.17
2023-02-21T07:19:55.785Z,10.77
2023-02-21T07:22:57.171Z,10.70
2023-02-21T07:25:58.650Z,10.57
2023-02-21T07:29:00.185Z,10.20
2023-02-21T07:32:01.596Z,10.80
2023-02-21T07:35:04.154Z,10.47
2023-02-21T07:38:05.579Z,11.70
2023-02-21T07:41:06.945Z,11.70
2023-02-21T07:44:08.599Z,9.87
2023-02-21T07:47:10.634Z,9.80
2023-02-21T07:50:12.563Z,9.70
2023-02-21T07:53:15.743Z,9.10
2023-02-21T07:56:17.222Z,8.77
2023-02-21T07:59:18.611Z,7.90
2023-02-21T08:02:20.411Z,7.93
2023-02-21T08:05:22.104Z,7.80
2023-02-21T08:08:23.517Z,7.83
2023-02-21T08:11:24.926Z,7.47
2023-02-21T08:14:26.436Z,7.60
2023-02-21T08:17:27.888Z,7.87
2023-02-21T08:20:29.338Z,7.60
2023-02-21T08:23:30.728Z,6.90
2023-02-21T08:26:32.149Z,7.10
2023-02-21T08:29:33.551Z,7.43
2023-02-21T08:32:35.517Z,6.80
2023-02-21T08:35:36.923Z,6.60
2023-02-21T08:38:39.550Z,7.93
2023-02-21T08:41:45.679Z,7.67
2023-02-21T08:44:47.865Z,6.80
2023-02-21T08:47:50.358Z,6.73
2023-02-21T08:50:53.634Z,7.40
2023-02-21T08:53:55.498Z,6.27
2023-02-21T08:56:58.617Z,7.73
2023-02-21T09:00:00.441Z,6.80
2023-02-21T09:03:02.169Z,7.33
2023-02-21T09:06:03.759Z,6.63
2023-02-21T09:09:05.145Z,7.57
2023-02-21T09:12:08.505Z,7.67
2023-02-21T09:15:10.727Z,7.30
2023-02-21T09:18:13.403Z,7.10
2023-02-21T09:21:16.245Z,8.27
2023-02-21T09:24:17.727Z,7.80
2023-02-21T09:27:20.048Z,7.83
2023-02-21T09:30:25.953Z,8.10
2023-02-21T09:33:27.491Z,8.63
2023-02-21T09:36:28.881Z,7.77
2023-02-21T09:39:30.268Z,8.87
2023-02-21T09:42:32.363Z,8.93
2023-02-21T09:45:36.997Z,9.13
2023-02-21T09:48:40.875Z,8.97
2023-02-21T09:51:43.775Z,9.17
2023-02-21T09:54:52.117Z,9.00
2023-02-21T09:57:54.377Z,9.30
2023-02-21T10:01:01.096Z,9.27
2023-02-21T10:04:21.688Z,9.30
2023-02-21T10:07:28.771Z,9.20
2023-02-21T10:10:46.496Z,9.60
2023-02-21T10:14:07.541Z,10.30
2023-02-21T10:17:36.768Z,9.57
2023-02-21T10:20:50.309Z,9.80
2023-02-21T10:23:57.687Z,10.37
2023-02-21T10:27:07.546Z,10.23
2023-02-21T10:30:18.007Z,10.20
2023-02-21T10:33:19.629Z,9.30
2023-02-21T10:36:23.063Z,9.53
2023-02-21T10:39:50.289Z,9.60
2023-02-21T10:43:01.186Z,9.20
2023-02-21T10:46:30.167Z,9.47
2023-02-21T10:49:39.574Z,9.13
2023-02-21T10:52:51.462Z,9.07
2023-02-21T10:56:15.223Z,9.63
2023-02-21T10:59:26.495Z,9.20
2023-02-21T11:02:44.797Z,9.73
2023-02-21T11:05:57.519Z,8.73
2023-02-21T11:08:59.638Z,8.50
2023-02-21T11:12:16.177Z,8.63
2023-02-21T11:15:18.970Z,8.60
2023-02-21T11:18:25.642Z,8.50
2023-02-21T11:21:27.113Z,8.27
2023-02-21T11:24:28.628Z,8.33
2023-02-21T11:27:32.526Z,7.77
2023-02-21T11:30:40.409Z,7.70
2023-02-21T11:33:57.641Z,7.17
2023-02-21T11:37:03.794Z,7.63
2023-02-21T11:40:08.477Z,7.67
2023-02-21T11:43:26.541Z,6.90
2023-02-21T11:46:37.915Z,6.83
2023-02-21T11:50:01.415Z,6.57
2023-02-21T11:53:26.064Z,6.53
2023-02-21T11:56:43.102Z,6.40
2023-02-21T12:00:20.011Z,6.77
2023-02-21T12:03:44.860Z,6.10
2023-02-21T12:06:57.076Z,5.80
2023-02-21T12:10:32.329Z,6.17
2023-02-21T12:13:58.847Z,6.00
2023-02-21T12:17:22.042Z,5.43
2023-02-21T12:20:38.479Z,4.50
2023-02-21T12:23:56.497Z,4.23
2023-02-21T12:27:31.162Z,4.27
2023-02-21T12:30:50.999Z,4.57
2023-02-21T12:34:06.844Z,4.37
2023-02-21T12:37:18.910Z,4.60
2023-02-21T12:40:28.708Z,5.50
2023-02-21T12:43:41.756Z,5.67
2023-02-21T12:47:17.442Z,5.13
2023-02-21T12:50:23.340Z,3.90
2023-02-21T12:54:03.670Z,3.83
2023-02-21T12:57:25.938Z,4.40
2023-02-21T13:00:44.186Z,4.47
2023-02-21T13:04:09.235Z,4.33
2023-02-21T13:07:21.543Z,3.80
2023-02-21T13:10:29.394Z,3.53
2023-02-21T13:13:32.832Z,3.10
2023-02-21T13:16:34.677Z,3.63
2023-02-21T13:19:50.104Z,4.47
2023-02-21T13:23:28.821Z,3.90
2023-02-21T13:27:07.981Z,3.27
2023-02-21T13:30:15.462Z,3.30
2023-02-21T13:33:38.494Z,3.23
2023-02-21T13:36:39.857Z,3.60
2023-02-21T13:39:45.419Z,3.00
2023-02-21T13:42:47.068Z,2.63
2023-02-21T13:45:48.810Z,2.80
2023-02-21T13:49:27.906Z,2.93
2023-02-21T13:52:32.016Z,2.70
2023-02-21T13:55:35.898Z,3.20
2023-02-21T13:58:45.937Z,2.80
2023-02-21T14:01:50.273Z,2.63
2023-02-21T14:05:01.577Z,2.87
2023-02-21T14:08:07.135Z,3.23
2023-02-21T14:11:12.431Z,2.73
2023-02-21T14:14:24.211Z,2.77
2023-02-21T14:17:29.373Z,2.33
2023-02-21T14:20:31.768Z,1.97
2023-02-21T14:23:45.548Z,1.90
2023-02-21T14:26:53.053Z,2.13
2023-02-21T14:30:00.687Z,2.30
2023-02-21T14:33:21.819Z,2.40
2023-02-21T14:36:24.065Z,2.20
2023-02-21T14:39:32.856Z,1.97
2023-02-21T14:42:43.357Z,1.87
2023-02-21T14:46:25.441Z,1.93
2023-02-21T14:49:51.764Z,1.70
2023-02-21T14:53:21.372Z,1.70
2023-02-21T14:56:56.858Z,1.80
2023-02-21T15:00:30.786Z,1.87
2023-02-21T15:03:41.863Z,1.87
2023-02-21T15:06:53.045Z,1.83
2023-02-21T15:10:27.067Z,1.50
2023-02-21T15:13:31.904Z,1.80
2023-02-21T15:16:33.339Z,1.70
2023-02-21T15:19:35.849Z,1.70
2023-02-21T15:22:37.259Z,1.80
2023-02-21T15:25:38.675Z,2.23
2023-02-21T15:28:40.071Z,1.83
2023-02-21T15:31:57.035Z,1.87
2023-02-21T15:34:58.834Z,1.87
2023-02-21T15:38:03.883Z,1.80
2023-02-21T15:41:15.934Z,1.77
2023-02-21T15:44:26.380Z,1.43
2023-02-21T15:47:32.866Z,2.00
2023-02-21T15:50:46.589Z,1.50
2023-02-21T15:54:11.247Z,1.67
2023-02-21T15:57:23.965Z,1.93
2023-02-21T16:00:33.132Z,1.60
2023-02-21T16:03:39.090Z,1.70
2023-02-21T16:06:48.409Z,1.80
2023-02-21T16:09:57.201Z,1.97
2023-02-21T16:13:00.873Z,1.90
2023-02-21T16:16:02.484Z,2.90
2023-02-21T16:19:04.071Z,2.83
2023-02-21T16:22:29.987Z,2.53
2023-02-21T16:25:33.356Z,2.57
2023-02-21T16:28:36.236Z,2.43
2023-02-21T16:31:39.843Z,2.53
2023-02-21T16:34:41.416Z,2.60
2023-02-21T16:37:42.898Z,2.93
2023-02-21T16:40:44.702Z,2.37
2023-02-21T16:43:46.770Z,2.00
2023-02-21T16:46:50.876Z,1.90
2023-02-21T16:49:52.298Z,1.93
2023-02-21T16:52:53.780Z,2.30
2023-02-21T16:55:56.320Z,2.43
2023-02-21T16:58:57.804Z,2.20
2023-02-21T17:01:59.261Z,3.30
2023-02-21T17:05:00.664Z,4.60
2023-02-21T17:08:02.956Z,6.83
2023-02-21T17:11:04.590Z,4.43
2023-02-21T17:14:05.978Z,4.97
2023-02-21T17:17:07.423Z,5.37
2023-02-21T17:20:14.404Z,6.47
2023-02-21T17:23:15.956Z,5.87
2023-02-21T17:26:17.898Z,6.43
2023-02-21T17:29:20.308Z,7.20
2023-02-21T17:32:21.810Z,6.00
2023-02-21T17:35:24.535Z,6.27
2023-02-21T17:38:25.966Z,5.83
2023-02-21T17:41:28.865Z,5.87
2023-02-21T17:44:30.340Z,6.60
2023-02-21T17:47:31.738Z,6.00
2023-02-21T17:50:33.563Z,5.90
2023-02-21T17:53:35.127Z,5.60
2023-02-21T17:56:36.546Z,5.37
2023-02-21T17:59:38.930Z,6.40
2023-02-21T18:02:40.485Z,4.50
2023-02-21T18:05:41.906Z,3.13
2023-02-21T18:08:46.685Z,4.80
2023-02-21T18:11:53.015Z,5.97
2023-02-21T18:14:54.457Z,6.83
2023-02-21T18:17:56.740Z,7.77
2023-02-21T18:20:59.598Z,7.83
2023-02-21T18:24:00.980Z,10.97
2023-02-21T18:27:02.457Z,10.03
2023-02-21T18:30:04.885Z,8.50
2023-02-21T18:33:06.628Z,10.83
2023-02-21T18:36:09.035Z,12.77
2023-02-21T18:39:10.412Z,11.10
2023-02-21T18:42:11.790Z,10.20
2023-02-21T18:45:13.295Z,10.40
2023-02-21T18:48:15.724Z,9.73
2023-02-21T18:51:19.883Z,10.37
2023-02-21T18:54:21.384Z,13.30
2023-02-21T18:57:22.928Z,16.03
2023-02-21T19:00:25.894Z,14.50
2023-02-21T19:03:27.368Z,13.70
2023-02-21T19:06:28.858Z,13.83
2023-02-21T19:09:30.244Z,14.13
2023-02-21T19:12:31.684Z,13.23
2023-02-21T19:15:33.424Z,12.43
2023-02-21T19:18:34.803Z,11.03
2023-02-21T19:21:36.254Z,10.33
2023-02-21T19:24:37.707Z,10.47
2023-02-21T19:27:39.091Z,10.57
2023-02-21T19:30:40.582Z,9.70
2023-02-21T19:33:43.245Z,7.70
2023-02-21T19:36:45.014Z,7.50
2023-02-21T19:39:46.558Z,10.10
2023-02-21T19:42:48.620Z,7.77
2023-02-21T19:45:52.063Z,7.27
2023-02-21T19:48:53.816Z,7.20
2023-02-21T19:51:58.421Z,6.83
2023-02-21T19:54:59.788Z,6.63
2023-02-21T19:58:06.384Z,6.87
2023-02-21T20:01:08.647Z,7.10
2023-02-21T20:04:10.830Z,8.53
2023-02-21T20:07:12.294Z,6.63
2023-02-21T20:10:16.600Z,7.03
2023-02-21T20:13:20.124Z,7.50
2023-02-21T20:16:22.259Z,7.90
2023-02-21T20:19:24.831Z,8.17
2023-02-21T20:22:31.187Z,8.90
2023-02-21T20:25:32.610Z,9.97
2023-02-21T20:28:34.070Z,9.93
2023-02-21T20:31:37.497Z,10.70
2023-02-21T20:34:39.693Z,10.50
2023-02-21T20:37:41.197Z,10.97
2023-02-21T20:40:42.657Z,10.80
2023-02-21T20:43:44.037Z,11.87
2023-02-21T20:46:45.462Z,12.70
2023-02-21T20:49:47.599Z,13.10
2023-02-21T20:52:49.023Z,12.90
2023-02-21T20:55:50.760Z,13.40
2023-02-21T20:58:52.151Z,13.60
2023-02-21T21:01:53.834Z,12.93
2023-02-21T21:04:55.222Z,13.30
2023-02-21T21:07:58.051Z,13.97
2023-02-21T21:10:59.529Z,12.97
2023-02-21T21:14:03.805Z,12.80
2023-02-21T21:17:06.009Z,11.87
2023-02-21T21:20:09.771Z,11.07
2023-02-21T21:23:11.138Z,13.07
2023-02-21T21:26:13.761Z,14.10
2023-02-21T21:29:15.482Z,13.80
2023-02-21T21:32:23.536Z,14.17
2023-02-21T21:35:29.824Z,14.00
2023-02-21T21:38:31.626Z,15.20
2023-02-21T21:41:34.208Z,15.53
2023-02-21T21:44:37.748Z,12.27
2023-02-21T21:47:39.128Z,12.87
2023-02-21T21:50:42.096Z,16.33
2023-02-21T21:53:43.629Z,12.53
2023-02-21T21:56:45.101Z,11.50
2023-02-21T21:59:49.444Z,9.87
2023-02-21T22:02:56.926Z,10.23
2023-02-21T22:06:00.416Z,10.27
2023-02-21T22:09:02.274Z,8.83
2023-02-21T22:12:06.108Z,9.53
2023-02-21T22:15:10.463Z,8.63
2023-02-21T22:18:15.929Z,10.10
2023-02-21T22:21:17.722Z,9.50
2023-02-21T22:24:20.708Z,8.60
2023-02-21T22:27:22.240Z,9.73
2023-02-21T22:30:25.067Z,11.67
2023-02-21T22:33:26.504Z,12.13
2023-02-21T22:36:31.117Z,12.30
2023-02-21T22:39:32.498Z,12.07
2023-02-21T22:42:33.951Z,12.27
2023-02-21T22:45:36.375Z,13.33
2023-02-21T22:48:40.020Z,13.93
2023-02-21T22:51:41.402Z,12.83
2023-02-21T22:54:42.829Z,12.90
2023-02-21T22:57:44.204Z,13.17
2023-02-21T23:00:47.076Z,11.90
2023-02-21T23:03:48.466Z,11.10
2023-02-21T23:06:49.845Z,10.70
2023-02-21T23:09:51.986Z,10.70
2023-02-21T23:12:58.121Z,10.77
2023-02-21T23:16:01.154Z,11.13
2023-02-21T23:19:02.696Z,11.00
2023-02-21T23:22:05.332Z,11.70
2023-02-21T23:25:19.602Z,13.50
2023-02-21T23:28:20.981Z,12.70
2023-02-21T23:31:22.836Z,12.50
2023-02-21T23:34:39.610Z,13.07
2023-02-21T23:37:42.954Z,13.80
2023-02-21T23:41:02.300Z,13.37
2023-02-21T23:44:03.843Z,14.07
2023-02-21T23:47:06.035Z,19.97
2023-02-21T23:50:17.084Z,17.70
2023-02-21T23:53:21.061Z,15.30
2023-02-21T23:56:22.783Z,13.70
2023-02-21T23:59:26.792Z,13.13
